Time;durP1;ratioP1;P1;durP2;ratioP2;P2;SDS_P1;SDS_P2;PMS_P1;PMS_P2;Temp;Humidity;BMP_temperature;BMP_pressure;BME280_temperature;BME280_humidity;BME280_pressure;Samples;Min_cycle;Max_cycle;Signal;HPM_P1;HPM_P2
2021/05/07 00:00:02;;;;;;;9.00;2.57;;;;;;;20.88;27.36;100046.38;5057130;28;20434;-54
2021/05/07 00:02:28;;;;;;;9.70;3.37;;;;;;;20.77;27.72;100048.25;5055272;28;20475;-49
2021/05/07 00:04:55;;;;;;;12.37;2.40;;;;;;;20.79;27.81;100038.63;5057351;28;20519;-54
2021/05/07 00:07:22;;;;;;;11.73;4.33;;;;;;;20.98;27.46;100033.19;5055939;28;20480;-53
2021/05/07 00:09:49;;;;;;;8.50;2.77;;;;;;;20.96;27.29;100040.19;5056688;28;20459;-52
2021/05/07 00:12:15;;;;;;;11.43;4.03;;;;;;;20.93;27.95;100038.47;5056210;28;20476;-52
2021/05/07 00:14:43;;;;;;;10.87;3.33;;;;;;;20.89;27.91;100036.78;5057213;28;20479;-53
2021/05/07 00:17:09;;;;;;;8.93;3.30;;;;;;;20.86;27.98;100034.22;5055996;28;20487;-51
2021/05/07 00:19:36;;;;;;;17.77;6.07;;;;;;;20.43;28.38;100040.75;5056705;28;20457;-52
2021/05/07 00:22:03;;;;;;;9.50;3.07;;;;;;;20.36;28.13;100048.69;5055685;28;20537;-50
2021/05/07 00:24:30;;;;;;;11.13;2.40;;;;;;;20.31;28.40;100047.84;5057109;28;20455;-52
2021/05/07 00:26:57;;;;;;;17.77;5.97;;;;;;;20.33;29.02;100048.72;5055987;28;20921;-53
2021/05/07 00:29:24;;;;;;;9.80;4.03;;;;;;;20.53;28.10;100042.41;5055998;28;21003;-54
2021/05/07 00:31:51;;;;;;;32.33;13.67;;;;;;;20.51;28.61;100044.19;5055193;28;20826;-51
2021/05/07 00:34:18;;;;;;;12.27;4.20;;;;;;;20.56;28.21;100044.97;5056839;28;20510;-52
2021/05/07 00:36:44;;;;;;;115.17;50.90;;;;;;;21.65;27.21;100048.84;5055598;28;20483;-53
2021/05/07 00:39:11;;;;;;;30.40;13.43;;;;;;;21.65;27.01;100051.47;5056920;28;20431;-50
2021/05/07 00:41:38;;;;;;;23.63;8.40;;;;;;;21.19;27.41;100050.38;5055880;28;20480;-54
2021/05/07 00:44:05;;;;;;;9.80;2.93;;;;;;;20.50;28.40;100048.53;5057322;28;20434;-51
2021/05/07 00:46:32;;;;;;;13.33;2.83;;;;;;;20.49;28.54;100052.06;5055533;28;20475;-51
2021/05/07 00:48:59;;;;;;;47.40;20.10;;;;;;;20.22;29.13;100047.94;5056793;28;20471;-53
2021/05/07 00:51:26;;;;;;;12.47;2.97;;;;;;;20.46;28.69;100045.97;5055363;28;20497;-52
2021/05/07 00:53:52;;;;;;;9.90;4.63;;;;;;;20.70;28.42;100051.81;5057141;28;20543;-52
2021/05/07 00:56:19;;;;;;;12.07;4.40;;;;;;;20.88;28.12;100043.75;5056392;28;20468;-53
2021/05/07 00:58:47;;;;;;;7.50;3.00;;;;;;;21.10;27.79;100051.38;5057325;28;20486;-50
2021/05/07 01:01:14;;;;;;;11.70;3.07;;;;;;;20.57;28.49;100058.97;5055633;28;20885;-55
2021/05/07 01:03:40;;;;;;;8.37;3.20;;;;;;;20.98;28.08;100062.88;5057097;28;20514;-49
2021/05/07 01:06:07;;;;;;;9.50;3.67;;;;;;;20.70;28.25;100060.56;5056196;28;20465;-53
2021/05/07 01:08:34;;;;;;;19.07;5.93;;;;;;;20.68;28.54;100051.84;5057162;28;20495;-55
2021/05/07 01:11:01;;;;;;;9.37;3.47;;;;;;;20.82;28.51;100049.03;5056196;28;20809;-51
2021/05/07 01:13:27;;;;;;;12.63;3.07;;;;;;;20.91;28.29;100054.22;5057010;28;20505;-51
2021/05/07 01:15:55;;;;;;;11.97;3.53;;;;;;;20.68;28.67;100056.22;5055841;28;20798;-53
2021/05/07 01:18:21;;;;;;;15.83;5.93;;;;;;;20.48;29.20;100049.44;5057014;28;20595;-50
2021/05/07 01:20:49;;;;;;;15.23;7.10;;;;;;;20.31;30.25;100042.59;5056858;28;20479;-51
2021/05/07 01:23:16;;;;;;;14.53;5.00;;;;;;;20.67;29.40;100036.13;5055578;28;20484;-54
2021/05/07 01:25:44;;;;;;;10.40;3.37;;;;;;;20.83;28.58;100036.81;5056837;28;20747;-53
2021/05/07 01:28:12;;;;;;;9.83;4.97;;;;;;;20.65;28.88;100036.16;5054475;28;20478;-55
2021/05/07 01:30:40;;;;;;;12.20;4.60;;;;;;;20.75;28.62;100031.66;5055794;28;20503;-50
2021/05/07 01:33:10;;;;;;;10.80;3.43;;;;;;;20.80;29.41;100036.88;5055605;28;20498;-55
2021/05/07 01:35:38;;;;;;;10.90;3.67;;;;;;;20.56;28.71;100036.25;5056975;28;21336;-51
2021/05/07 01:38:07;;;;;;;12.23;4.27;;;;;;;20.26;28.94;100033.97;5055533;28;21027;-53
2021/05/07 01:40:35;;;;;;;9.43;3.13;;;;;;;20.06;29.49;100042.84;5056234;28;20893;-52
2021/05/07 01:43:03;;;;;;;8.63;3.60;;;;;;;19.80;29.67;100043.03;5055830;28;20475;-50
2021/05/07 01:45:31;;;;;;;17.40;4.00;;;;;;;20.01;29.70;100049.00;5056880;28;20455;-52
2021/05/07 01:47:58;;;;;;;9.70;3.73;;;;;;;20.33;29.19;100042.59;5055437;28;20490;-52
2021/05/07 01:50:27;;;;;;;13.70;3.40;;;;;;;20.56;29.25;100042.34;5056466;28;20460;-52
2021/05/07 01:52:55;;;;;;;12.30;3.67;;;;;;;20.64;29.09;100043.16;5054864;28;20854;-52
2021/05/07 01:55:24;;;;;;;18.03;5.93;;;;;;;20.59;29.49;100041.47;5056216;28;20547;-51
2021/05/07 01:57:50;;;;;;;13.27;3.90;;;;;;;20.43;29.36;100052.13;5054994;28;20553;-51
2021/05/07 02:00:19;;;;;;;9.13;3.60;;;;;;;20.30;29.46;100047.88;5055720;28;20498;-51
2021/05/07 02:02:46;;;;;;;14.83;3.93;;;;;;;20.08;29.79;100056.81;5054857;28;20461;-51
2021/05/07 02:05:13;;;;;;;15.57;6.20;;;;;;;20.48;29.05;100050.31;5056322;28;20487;-51
2021/05/07 02:07:42;;;;;;;43.97;19.80;;;;;;;20.82;28.75;100050.81;5055110;28;20563;-51
2021/05/07 02:10:11;;;;;;;10.03;3.80;;;;;;;20.24;29.37;100051.41;5055865;28;20464;-54
2021/05/07 02:12:38;;;;;;;29.73;10.53;;;;;;;20.71;29.27;100050.94;5055300;28;20507;-53
2021/05/07 02:15:07;;;;;;;37.47;16.13;;;;;;;20.93;29.20;100058.56;5056173;28;20897;-50
2021/05/07 02:17:34;;;;;;;25.43;9.30;;;;;;;21.21;28.51;100063.47;5054869;28;20458;-53
2021/05/07 02:20:00;;;;;;;11.43;4.53;;;;;;;21.06;28.41;100070.66;5055877;28;20456;-51
2021/05/07 02:22:29;;;;;;;15.00;5.57;;;;;;;20.78;29.18;100068.34;5054675;28;20483;-54
2021/05/07 02:24:55;;;;;;;13.17;3.93;;;;;;;20.75;28.68;100066.63;5055936;28;20460;-52
2021/05/07 02:27:22;;;;;;;22.50;8.57;;;;;;;20.77;29.04;100063.97;5055116;28;20550;-50
2021/05/07 02:29:49;;;;;;;9.60;4.50;;;;;;;20.63;29.25;100072.84;5055751;28;20554;-53
2021/05/07 02:32:16;;;;;;;12.43;3.47;;;;;;;20.46;28.94;100072.19;5054598;28;20765;-52
2021/05/07 02:34:43;;;;;;;8.93;4.10;;;;;;;20.52;28.85;100072.13;5055599;28;20467;-50
2021/05/07 02:37:10;;;;;;;29.37;13.83;;;;;;;21.01;28.25;100072.44;5043638;28;20965;-53
2021/05/07 02:39:37;;;;;;;16.20;4.40;;;;;;;20.74;28.81;100064.00;5055291;28;20733;-53
2021/05/07 02:42:04;;;;;;;12.90;4.20;;;;;;;20.76;28.90;100068.34;5055025;28;20479;-54
2021/05/07 02:44:31;;;;;;;13.00;4.37;;;;;;;20.78;28.45;100068.34;5055668;28;20485;-51
2021/05/07 02:47:03;;;;;;;53.50;24.53;;;;;;;21.30;28.11;100071.22;5054366;28;20800;-54
2021/05/07 02:49:30;;;;;;;11.03;4.03;;;;;;;20.99;28.40;100069.00;5055478;28;20475;-54
2021/05/07 02:51:56;;;;;;;15.37;6.93;;;;;;;19.75;30.32;100076.22;5053790;28;20933;-51
2021/05/07 02:54:23;;;;;;;17.73;7.23;;;;;;;19.60;30.94;100082.44;5055335;28;20551;-49
2021/05/07 02:56:50;;;;;;;16.10;4.37;;;;;;;19.45;31.36;100076.41;5054774;28;20483;-55
2021/05/07 02:59:16;;;;;;;15.47;5.00;;;;;;;20.09;30.44;100069.00;5055508;28;20458;-52
2021/05/07 03:01:43;;;;;;;18.33;4.40;;;;;;;19.76;30.89;100071.00;5054184;28;20947;-52
2021/05/07 03:04:11;;;;;;;16.43;4.17;;;;;;;19.40;31.31;100078.19;5055358;28;20455;-54
2021/05/07 03:06:37;;;;;;;18.67;4.17;;;;;;;19.12;31.93;100084.41;5054503;28;20851;-51
2021/05/07 03:09:04;;;;;;;21.73;9.43;;;;;;;19.60;31.68;100079.81;5055293;28;20462;-54
2021/05/07 03:11:31;;;;;;;23.97;9.97;;;;;;;19.55;31.29;100083.31;5054286;28;20458;-51
2021/05/07 03:13:58;;;;;;;10.03;4.17;;;;;;;19.90;30.48;100088.34;5055423;28;20461;-54
2021/05/07 03:16:24;;;;;;;14.60;6.20;;;;;;;19.41;31.40;100077.31;5054103;28;20455;-51
2021/05/07 03:18:51;;;;;;;16.30;7.13;;;;;;;19.32;31.62;100085.22;5055032;28;20483;-50
2021/05/07 03:21:18;;;;;;;11.37;5.97;;;;;;;19.77;31.05;100088.41;5053632;28;20913;-49
2021/05/07 03:23:46;;;;;;;14.30;4.47;;;;;;;19.47;31.32;100089.50;5055446;28;20456;-53
2021/05/07 03:26:13;;;;;;;8.87;4.07;;;;;;;19.58;31.10;100092.91;5054631;28;20556;-54
2021/05/07 03:28:40;;;;;;;17.07;5.40;;;;;;;18.58;33.35;100101.13;5055067;28;20452;-49
2021/05/07 03:31:06;;;;;;;11.83;6.33;;;;;;;18.97;32.68;100110.59;5053587;28;20470;-51
2021/05/07 03:33:33;;;;;;;10.87;4.90;;;;;;;18.71;33.51;100109.78;5054925;28;20464;-52
2021/05/07 03:36:00;;;;;;;10.80;3.90;;;;;;;18.89;34.29;100108.00;5053557;28;20913;-54
2021/05/07 03:38:28;;;;;;;16.53;6.83;;;;;;;19.53;32.56;100106.00;5054944;28;20496;-51
2021/05/07 03:40:55;;;;;;;10.20;3.70;;;;;;;18.21;34.96;100115.06;5054052;28;20456;-53
2021/05/07 03:43:21;;;;;;;14.20;3.90;;;;;;;18.30;34.88;100118.56;5054903;28;20525;-51
2021/05/07 03:45:48;;;;;;;12.47;5.30;;;;;;;18.82;34.38;100124.56;5054850;28;20462;-50
2021/05/07 03:48:15;;;;;;;16.93;6.43;;;;;;;18.06;35.53;100138.56;5053523;28;20486;-49
2021/05/07 03:50:42;;;;;;;20.30;8.00;;;;;;;19.00;34.23;100126.25;5054661;28;20448;-50
2021/05/07 03:53:09;;;;;;;13.90;4.17;;;;;;;18.93;34.52;100130.66;5053230;28;20471;-51
2021/05/07 03:55:37;;;;;;;12.57;4.87;;;;;;;18.46;35.13;100141.16;5055076;28;20790;-49
2021/05/07 03:58:03;;;;;;;14.03;4.50;;;;;;;19.41;33.83;100143.56;5053520;28;20928;-52
2021/05/07 04:00:30;;;;;;;21.83;9.20;;;;;;;19.56;33.93;100136.50;5054497;28;20483;-48
2021/05/07 04:02:57;;;;;;;9.83;3.50;;;;;;;18.25;35.17;100141.19;5053564;28;20478;-53
2021/05/07 04:05:23;;;;;;;8.17;3.67;;;;;;;18.89;34.65;100148.09;5058184;28;20509;-54
2021/05/07 04:07:58;;;;;;;14.70;6.73;;;;;;;18.87;34.62;100147.19;5057276;28;20933;-50
2021/05/07 04:10:28;;;;;;;11.70;5.60;;;;;;;19.40;33.82;100148.81;5058212;28;20967;-53
2021/05/07 04:15:40;;;;;;;6.30;3.20;;;;;;;18.39;35.36;100152.47;5058695;28;20534;-50
2021/05/07 04:18:07;;;;;;;26.03;12.03;;;;;;;19.13;34.17;100154.13;5057029;28;20604;-52
2021/05/07 04:20:34;;;;;;;12.30;3.80;;;;;;;19.15;33.90;100161.97;5058020;28;20803;-53
2021/05/07 04:23:01;;;;;;;9.20;3.73;;;;;;;19.40;33.40;100167.09;5056891;28;20570;-51
2021/05/07 04:25:28;;;;;;;8.47;2.83;;;;;;;19.47;33.19;100168.81;5058226;28;20461;-51
2021/05/07 04:27:55;;;;;;;8.17;4.60;;;;;;;18.66;34.98;100184.66;5057332;28;20453;-49
2021/05/07 04:30:22;;;;;;;15.03;5.83;;;;;;;18.47;35.47;100189.91;5057979;28;20462;-50
2021/05/07 04:32:49;;;;;;;11.83;4.90;;;;;;;18.98;34.11;100185.50;5056625;28;20454;-50
2021/05/07 04:35:16;;;;;;;8.47;3.63;;;;;;;18.22;35.19;100189.88;5058056;28;20494;-50
2021/05/07 04:37:42;;;;;;;15.70;4.30;;;;;;;18.12;35.94;100195.09;5056648;28;20495;-48
2021/05/07 04:40:10;;;;;;;13.80;4.70;;;;;;;18.06;35.94;100202.03;5057572;28;20885;-49
2021/05/07 04:42:36;;;;;;;6.53;2.70;;;;;;;18.27;35.62;100197.75;5057156;28;20479;-55
2021/05/07 04:45:05;;;;;;;6.43;3.43;;;;;;;18.56;35.04;100198.63;5057797;28;20531;-51
2021/05/07 04:47:32;;;;;;;18.60;8.93;;;;;;;18.56;35.16;100201.25;5056498;28;20533;-53
2021/05/07 04:49:58;;;;;;;6.70;2.90;;;;;;;18.87;34.95;100204.69;5057614;28;20463;-54
2021/05/07 04:52:25;;;;;;;18.40;8.53;;;;;;;19.37;34.78;100212.44;5056396;28;20480;-54
2021/05/07 04:54:52;;;;;;;8.33;4.10;;;;;;;18.91;35.39;100210.78;5057570;28;20843;-52
2021/05/07 04:57:18;;;;;;;15.37;6.80;;;;;;;18.88;35.92;100216.03;5056818;28;20925;-49
2021/05/07 04:59:45;;;;;;;21.00;7.90;;;;;;;19.28;35.52;100215.09;5057451;28;20543;-49
2021/05/07 05:02:12;;;;;;;13.33;6.40;;;;;;;17.98;37.44;100221.13;5056359;28;20568;-52
2021/05/07 05:04:39;;;;;;;29.47;14.27;;;;;;;19.12;37.25;100215.13;5057525;28;20434;-49
2021/05/07 05:07:07;;;;;;;12.00;6.17;;;;;;;18.72;35.94;100216.03;5056016;28;20454;-50
2021/05/07 05:09:34;;;;;;;11.70;4.80;;;;;;;18.15;36.54;100223.84;5057269;28;20467;-50
2021/05/07 05:12:01;;;;;;;16.57;6.80;;;;;;;18.61;36.02;100225.63;5056660;28;20796;-48
2021/05/07 05:14:27;;;;;;;7.37;3.90;;;;;;;17.61;37.21;100221.88;5057329;28;20912;-54
2021/05/07 05:16:54;;;;;;;6.57;3.70;;;;;;;17.89;36.78;100222.84;5055352;28;20594;-50
2021/05/07 05:19:22;;;;;;;15.90;6.30;;;;;;;18.04;35.93;100226.38;5057116;28;20481;-48
2021/05/07 05:21:48;;;;;;;11.20;5.07;;;;;;;17.14;37.59;100226.88;5055300;28;20504;-50
2021/05/07 05:24:15;;;;;;;8.33;3.60;;;;;;;17.31;36.88;100228.69;5057380;28;20509;-48
2021/05/07 05:26:41;;;;;;;10.50;3.73;;;;;;;18.35;35.46;100232.56;5055814;28;20454;-52
2021/05/07 05:29:11;;;;;;;22.17;8.80;;;;;;;18.65;35.00;100235.19;5054893;28;20923;-49
2021/05/07 05:31:37;;;;;;;14.57;6.63;;;;;;;18.47;35.32;100239.53;5055185;28;20484;-50
2021/05/07 05:34:04;;;;;;;6.40;3.10;;;;;;;18.20;35.70;100243.00;5056854;28;20431;-49
2021/05/07 05:36:32;;;;;;;10.67;2.80;;;;;;;18.34;35.45;100245.59;5055559;28;20487;-50
2021/05/07 05:38:58;;;;;;;13.93;7.13;;;;;;;18.79;34.77;100245.66;5056825;28;20468;-50
2021/05/07 05:41:25;;;;;;;10.70;5.10;;;;;;;17.70;36.12;100248.03;5055797;28;20533;-53
2021/05/07 05:43:52;;;;;;;6.57;2.47;;;;;;;18.22;35.21;100249.94;5056870;28;20437;-50
2021/05/07 05:46:18;;;;;;;10.77;4.90;;;;;;;17.99;35.36;100254.22;5055349;28;20464;-51
2021/05/07 05:48:45;;;;;;;5.80;2.10;;;;;;;17.51;36.87;100262.69;5056344;28;20499;-50
2021/05/07 05:51:11;;;;;;;7.50;3.00;;;;;;;17.73;36.39;100268.03;5055241;28;20554;-49
2021/05/07 05:53:39;;;;;;;14.93;5.77;;;;;;;18.13;36.23;100262.09;5056531;28;20888;-53
2021/05/07 05:56:05;;;;;;;9.20;4.20;;;;;;;18.06;35.90;100272.50;5055362;28;20501;-51
2021/05/07 05:58:32;;;;;;;5.57;2.60;;;;;;;17.90;36.34;100271.56;5055957;28;20491;-54
2021/05/07 06:00:59;;;;;;;10.50;4.27;;;;;;;18.17;36.29;100275.19;5054851;28;20434;-50
2021/05/07 06:03:26;;;;;;;11.93;2.73;;;;;;;18.19;36.12;100275.16;5056141;28;20762;-47
2021/05/07 06:05:52;;;;;;;6.10;3.03;;;;;;;18.07;35.87;100273.41;5056496;28;20745;-52
2021/05/07 06:08:19;;;;;;;6.33;2.60;;;;;;;18.26;35.16;100276.94;5056024;28;20456;-47
2021/05/07 06:10:46;;;;;;;11.73;3.60;;;;;;;18.61;35.44;100273.50;5055977;28;20467;-52
2021/05/07 06:13:13;;;;;;;12.10;4.73;;;;;;;18.84;34.26;100277.00;5055322;28;20823;-51
2021/05/07 06:15:41;;;;;;;7.40;3.40;;;;;;;19.09;34.46;100277.00;5056115;28;20477;-52
2021/05/07 06:18:08;;;;;;;4.93;2.80;;;;;;;18.96;34.07;100277.00;5054564;28;20480;-48
2021/05/07 06:20:34;;;;;;;7.70;2.87;;;;;;;19.03;34.49;100281.38;5055930;28;20463;-51
2021/05/07 06:23:01;;;;;;;7.30;2.80;;;;;;;18.74;34.33;100291.81;5054612;28;20512;-49
2021/05/07 06:25:29;;;;;;;4.00;2.00;;;;;;;19.02;33.96;100290.09;5056129;28;20462;-49
2021/05/07 06:27:57;;;;;;;6.90;2.17;;;;;;;18.93;34.20;100290.06;5054358;28;20455;-50
2021/05/07 06:30:23;;;;;;;9.13;3.90;;;;;;;19.28;33.56;100289.19;5055473;28;20486;-53
2021/05/07 06:32:50;;;;;;;11.37;3.73;;;;;;;19.46;33.19;100286.53;5054408;28;20483;-51
2021/05/07 06:35:16;;;;;;;5.53;2.47;;;;;;;19.70;33.13;100290.84;5055741;28;20434;-49
2021/05/07 06:37:43;;;;;;;6.60;2.97;;;;;;;19.12;34.14;100295.31;5054151;28;20518;-49
2021/05/07 06:40:11;;;;;;;7.23;3.20;;;;;;;18.99;34.82;100295.31;5054048;28;20438;-52
2021/05/07 06:42:38;;;;;;;8.80;2.30;;;;;;;19.40;33.82;100297.88;5053755;28;20738;-51
2021/05/07 06:45:08;;;;;;;4.30;2.63;;;;;;;18.39;35.25;100300.44;5055227;28;20513;-53
2021/05/07 06:47:35;;;;;;;2.77;1.80;;;;;;;18.51;34.73;100300.47;5054231;28;20457;-51
2021/05/07 06:50:02;;;;;;;10.53;5.70;;;;;;;19.60;33.64;100296.97;5055057;28;20433;-51
2021/05/07 06:52:30;;;;;;;15.10;5.40;;;;;;;18.52;35.05;100306.56;5054130;28;20899;-50
2021/05/07 06:54:57;;;;;;;14.73;5.90;;;;;;;18.65;35.35;100310.94;5055156;28;20438;-50
2021/05/07 06:57:24;;;;;;;12.87;5.60;;;;;;;18.67;35.28;100305.72;5043766;28;20469;-54
2021/05/07 06:59:51;;;;;;;16.93;7.83;;;;;;;18.87;34.98;100310.97;5035376;28;20547;-50
2021/05/07 07:02:18;;;;;;;3.70;2.27;;;;;;;19.53;33.78;100312.69;5034295;28;20477;-51
2021/05/07 07:04:46;;;;;;;9.20;3.13;;;;;;;19.71;33.62;100321.34;5035483;28;20442;-50
2021/05/07 07:07:12;;;;;;;8.43;2.60;;;;;;;19.41;34.30;100315.31;5034113;28;20477;-48
2021/05/07 07:09:39;;;;;;;3.47;1.60;;;;;;;18.01;36.86;100321.22;5041005;28;20802;-51
2021/05/07 07:12:06;;;;;;;10.70;5.40;;;;;;;19.03;34.47;100325.81;5052180;28;20459;-49
2021/05/07 07:14:36;;;;;;;5.07;2.20;;;;;;;18.40;35.07;100333.56;5047590;28;20748;-49
2021/05/07 07:17:03;;;;;;;39.63;19.57;;;;;;;19.53;33.46;100325.75;5044803;28;20508;-51
2021/05/07 07:19:31;;;;;;;13.20;5.63;;;;;;;19.48;34.03;100319.66;5055046;28;20542;-50
2021/05/07 07:22:01;;;;;;;10.77;5.00;;;;;;;19.34;33.68;100335.41;5053703;28;20607;-51
2021/05/07 07:24:28;;;;;;;8.23;4.30;;;;;;;20.33;31.53;100334.22;5054988;28;20452;-53
2021/05/07 07:26:55;;;;;;;15.53;7.70;;;;;;;19.68;33.34;100329.19;5053764;28;20505;-50
2021/05/07 07:29:22;;;;;;;5.17;2.40;;;;;;;19.23;34.38;100339.75;5055075;28;20462;-48
2021/05/07 07:31:50;;;;;;;11.10;2.50;;;;;;;18.16;35.50;100340.44;5053149;28;20519;-50
2021/05/07 07:34:17;;;;;;;44.40;21.93;;;;;;;19.43;33.95;100339.72;5054585;28;20517;-53
2021/05/07 07:36:45;;;;;;;6.30;3.33;;;;;;;18.78;33.94;100358.88;5053578;28;20567;-52
2021/05/07 07:39:12;;;;;;;4.93;1.83;;;;;;;19.01;33.75;100343.22;5056077;28;20486;-51
2021/05/07 07:41:39;;;;;;;8.30;4.50;;;;;;;19.97;32.87;100349.22;5057721;28;20477;-50
2021/05/07 07:44:06;;;;;;;8.37;4.57;;;;;;;19.33;32.98;100348.47;5058941;28;20569;-52
2021/05/07 07:46:34;;;;;;;24.50;12.20;;;;;;;19.77;32.57;100357.09;5057547;28;20478;-52
2021/05/07 07:49:00;;;;;;;11.47;5.90;;;;;;;19.52;33.60;100358.03;5058429;28;20547;-48
2021/05/07 07:51:30;;;;;;;6.10;2.50;;;;;;;19.03;34.10;100362.41;5052818;28;20443;-50
2021/05/07 07:53:58;;;;;;;9.17;4.97;;;;;;;19.50;34.08;100354.56;5054358;28;20483;-49
2021/05/07 07:56:25;;;;;;;9.00;4.30;;;;;;;19.62;33.84;100355.38;5048435;28;20520;-51
2021/05/07 07:58:52;;;;;;;17.13;7.40;;;;;;;19.77;31.50;100360.59;5058089;28;20805;-49
2021/05/07 08:01:19;;;;;;;4.87;1.67;;;;;;;20.63;31.17;100363.72;5056873;28;20486;-53
2021/05/07 08:03:45;;;;;;;4.37;1.30;;;;;;;20.29;31.12;100365.66;5058614;28;20441;-53
2021/05/07 08:06:12;;;;;;;6.00;3.30;;;;;;;19.86;31.80;100375.41;5053760;28;20470;-53
2021/05/07 08:08:39;;;;;;;5.30;2.37;;;;;;;19.48;33.50;100382.44;5051968;28;20460;-52
2021/05/07 08:11:06;;;;;;;14.90;5.67;;;;;;;19.42;34.57;100391.16;5057474;28;20459;-49
2021/05/07 08:13:33;;;;;;;10.00;5.43;;;;;;;18.44;37.96;100377.94;5039483;28;20500;-50
2021/05/07 08:15:59;;;;;;;16.43;7.83;;;;;;;18.34;37.90;100376.16;5037439;28;20924;-51
2021/05/07 08:18:26;;;;;;;3.00;1.63;;;;;;;18.14;38.58;100390.00;5053910;28;20780;-49
2021/05/07 08:20:52;;;;;;;4.43;1.73;;;;;;;17.99;38.95;100395.16;5057742;28;20481;-55
2021/05/07 08:23:20;;;;;;;22.90;12.23;;;;;;;18.28;39.04;100394.41;5056300;28;20478;-51
2021/05/07 08:25:47;;;;;;;11.17;4.87;;;;;;;17.27;39.88;100395.53;5046904;28;20894;-52
2021/05/07 08:28:15;;;;;;;4.40;1.47;;;;;;;17.32;38.82;100397.31;5055329;28;20724;-53
2021/05/07 08:30:41;;;;;;;7.03;1.97;;;;;;;17.68;37.75;100401.91;5039952;28;20826;-52
2021/05/07 08:33:09;;;;;;;14.90;6.80;;;;;;;17.58;37.29;100407.91;5036612;28;20496;-49
2021/05/07 08:35:36;;;;;;;12.10;4.30;;;;;;;17.59;36.43;100407.03;5037993;28;20757;-51
2021/05/07 08:38:03;;;;;;;2.60;1.10;;;;;;;17.03;36.76;100409.22;5036768;28;20535;-53
2021/05/07 08:40:30;;;;;;;9.10;2.33;;;;;;;18.82;35.04;100409.41;5037809;28;20535;-53
2021/05/07 08:42:56;;;;;;;2.87;1.20;;;;;;;18.37;35.20;100417.97;5036523;28;20485;-52
2021/05/07 08:45:28;;;;;;;3.40;1.43;;;;;;;18.10;34.61;100419.56;5052230;28;20480;-49
2021/05/07 08:48:09;;;;;;;3.00;1.30;;;;;;;18.72;34.47;100409.38;5056134;28;20470;-49
2021/05/07 08:50:40;;;;;;;4.90;1.80;;;;;;;19.08;34.01;100425.13;5056489;28;20483;-50
2021/05/07 08:53:08;;;;;;;8.23;3.87;;;;;;;20.22;32.47;100411.97;5056088;28;20559;-51
2021/05/07 08:55:35;;;;;;;4.33;1.50;;;;;;;18.67;34.38;100428.53;5057370;28;20802;-50
2021/05/07 08:58:02;;;;;;;10.87;4.97;;;;;;;19.88;32.02;100419.91;5056694;28;20945;-50
2021/05/07 09:00:29;;;;;;;7.40;2.67;;;;;;;17.99;35.06;100427.31;5057008;28;20455;-53
2021/05/07 09:03:04;;;;;;;3.03;1.40;;;;;;;18.21;35.58;100428.34;5055883;28;20491;-53
2021/05/07 09:05:31;;;;;;;4.67;1.93;;;;;;;17.38;35.48;100439.06;5057614;28;20445;-50
2021/05/07 09:07:58;;;;;;;7.20;2.90;;;;;;;17.72;35.77;100438.44;5056032;28;20595;-49
2021/05/07 09:10:32;;;;;;;4.63;1.73;;;;;;;17.53;36.79;100438.31;5056915;28;20456;-48
2021/05/07 09:12:59;;;;;;;8.63;3.37;;;;;;;17.33;36.41;100441.63;5055626;28;20486;-54
2021/05/07 09:15:38;;;;;;;11.53;2.33;;;;;;;18.14;34.93;100441.38;5057498;28;20461;-54
2021/05/07 09:18:05;;;;;;;6.90;2.03;;;;;;;17.77;36.30;100441.97;5055722;28;20499;-50
2021/05/07 09:20:37;;;;;;;6.03;2.80;;;;;;;18.07;35.52;100450.88;5056846;28;20539;-52
2021/05/07 09:23:05;;;;;;;5.20;1.60;;;;;;;18.46;34.77;100475.47;5055647;28;20934;-52
2021/05/07 09:25:32;;;;;;;4.40;1.80;;;;;;;17.07;36.49;100502.19;5050654;28;20470;-50
2021/05/07 09:28:09;;;;;;;5.47;1.70;;;;;;;16.65;38.39;100498.19;5035656;28;20480;-52
2021/05/07 09:30:36;;;;;;;3.70;1.23;;;;;;;15.53;41.33;100500.88;5036817;28;20464;-52
2021/05/07 09:33:07;;;;;;;7.33;2.37;;;;;;;16.13;38.85;100494.03;5035534;28;20489;-50
2021/05/07 09:35:34;;;;;;;33.33;12.37;;;;;;;16.18;39.46;100488.06;5037024;28;20463;-51
2021/05/07 09:38:03;;;;;;;18.70;6.80;;;;;;;16.46;39.70;100483.22;5035560;28;20481;-50
2021/05/07 09:40:30;;;;;;;4.87;1.73;;;;;;;16.35;39.41;100496.94;5043862;28;20456;-48
2021/05/07 09:43:05;;;;;;;3.60;1.23;;;;;;;17.49;36.99;100492.16;5055205;28;20483;-51
2021/05/07 09:45:32;;;;;;;3.70;1.47;;;;;;;16.82;38.61;100506.22;5056704;28;20437;-54
2021/05/07 09:47:59;;;;;;;3.23;1.50;;;;;;;16.95;39.41;100508.13;5055152;28;20475;-53
2021/05/07 09:50:37;;;;;;;8.33;2.80;;;;;;;16.90;40.94;100501.97;5055129;28;20471;-54
2021/05/07 09:53:12;;;;;;;7.20;2.70;;;;;;;16.98;40.74;100497.72;5055099;28;20479;-49
2021/05/07 09:55:38;;;;;;;3.67;1.77;;;;;;;17.36;39.48;100501.63;5056373;28;20437;-54
2021/05/07 09:58:05;;;;;;;8.27;3.13;;;;;;;17.54;39.23;100505.28;5054911;28;20484;-53
2021/05/07 10:00:32;;;;;;;6.10;2.90;;;;;;;18.52;38.88;100507.69;5055736;28;20748;-55
2021/05/07 10:02:59;;;;;;;5.20;2.50;;;;;;;18.92;39.79;100505.25;5054673;28;20482;-52
2021/05/07 10:05:27;;;;;;;5.20;2.83;;;;;;;19.08;41.15;100503.56;5056457;28;20804;-53
2021/05/07 10:07:57;;;;;;;8.30;2.40;;;;;;;19.08;40.30;100494.88;5055298;28;20434;-51
2021/05/07 10:10:31;;;;;;;7.23;3.53;;;;;;;18.57;41.12;100506.84;5055895;28;20460;-53
2021/05/07 10:12:59;;;;;;;7.10;2.53;;;;;;;18.53;37.41;100496.38;5054355;28;20567;-52
2021/05/07 10:15:31;;;;;;;4.00;2.30;;;;;;;18.78;36.86;100501.72;5055831;28;20464;-53
2021/05/07 10:17:57;;;;;;;4.20;2.30;;;;;;;17.74;38.97;100505.41;5054695;28;20929;-50
2021/05/07 10:20:29;;;;;;;10.27;2.20;;;;;;;18.32;37.64;100514.56;5055285;28;20471;-53
2021/05/07 10:22:59;;;;;;;7.43;2.03;;;;;;;17.92;38.47;100536.03;5054908;28;20493;-54
2021/05/07 10:25:27;;;;;;;5.13;2.10;;;;;;;16.98;38.63;100543.75;5055439;28;20555;-55
2021/05/07 10:27:55;;;;;;;6.13;1.80;;;;;;;16.42;40.20;100564.72;5054331;28;20458;-51
2021/05/07 10:30:27;;;;;;;6.03;1.90;;;;;;;16.42;40.01;100556.91;5055213;28;20847;-50
2021/05/07 10:33:02;;;;;;;5.80;2.73;;;;;;;16.28;39.31;100545.44;5054249;28;20468;-50
2021/05/07 10:35:33;;;;;;;5.13;2.17;;;;;;;16.65;39.86;100560.69;5055647;28;20430;-49
2021/05/07 10:38:12;;;;;;;5.20;1.70;;;;;;;16.76;39.51;100566.06;5054522;28;20472;-49
2021/05/07 10:40:40;;;;;;;6.07;2.53;;;;;;;17.51;38.32;100565.22;5055203;28;20538;-49
2021/05/07 10:43:07;;;;;;;2.80;1.50;;;;;;;17.29;38.03;100551.97;5054201;28;20549;-49
2021/05/07 10:45:44;;;;;;;5.13;1.63;;;;;;;18.24;37.72;100558.03;5055566;28;20543;-48
2021/05/07 10:48:19;;;;;;;4.03;1.63;;;;;;;18.16;36.51;100559.72;5047952;28;20476;-48
2021/05/07 10:50:47;;;;;;;4.47;2.43;;;;;;;18.40;35.79;100552.91;5035123;28;20496;-49
2021/05/07 10:53:29;;;;;;;4.10;1.60;;;;;;;18.67;34.26;100556.53;5034218;28;20560;-50
2021/05/07 10:55:56;;;;;;;3.63;1.20;;;;;;;18.70;34.48;100549.59;5034475;28;20535;-49
2021/05/07 10:58:33;;;;;;;3.33;1.63;;;;;;;18.61;31.80;100557.41;5054125;28;20795;-51
2021/05/07 11:01:00;;;;;;;3.50;0.90;;;;;;;19.28;31.19;100555.06;5053317;28;20470;-49
2021/05/07 11:03:27;;;;;;;5.40;1.53;;;;;;;18.87;34.24;100564.50;5055257;28;20510;-49
2021/05/07 11:05:54;;;;;;;2.60;1.23;;;;;;;18.11;30.89;100564.91;5053624;28;20519;-49
2021/05/07 11:08:32;;;;;;;4.17;1.93;;;;;;;18.98;31.88;100573.22;5055056;28;20491;-50
2021/05/07 11:10:59;;;;;;;2.80;1.17;;;;;;;18.64;30.05;100567.84;5053604;28;20903;-50
2021/05/07 11:13:25;;;;;;;3.50;0.90;;;;;;;18.57;30.49;100553.00;5054032;28;20499;-49
2021/05/07 11:15:56;;;;;;;2.23;1.13;;;;;;;18.95;29.58;100573.22;5055113;28;20463;-48
2021/05/07 11:18:30;;;;;;;4.33;1.03;;;;;;;19.05;29.03;100573.28;5054700;28;20506;-50
2021/05/07 11:20:57;;;;;;;5.40;1.07;;;;;;;19.69;27.84;100569.09;5053549;28;20460;-52
2021/05/07 11:23:29;;;;;;;4.50;1.20;;;;;;;18.49;28.96;100568.63;5054753;28;20484;-49
2021/05/07 11:26:04;;;;;;;2.87;1.00;;;;;;;18.73;29.88;100575.72;5053890;28;20893;-49